createdAt,value
2019-06-01T00:01:36.136Z,98522.66
2019-06-01T00:04:05.621Z,98519.67
2019-06-01T00:06:38.617Z,98525.83
2019-06-01T00:09:09.714Z,98525.59
2019-06-01T00:11:41.240Z,98521.41
2019-06-01T00:14:11.883Z,98532.80
2019-06-01T00:16:41.970Z,98524.37
2019-06-01T00:19:12.942Z,98529.64
2019-06-01T00:21:45.445Z,98524.17
2019-06-01T00:24:15.850Z,98526.45
2019-06-01T00:26:45.858Z,98514.86
2019-06-01T00:29:16.355Z,98517.34
2019-06-01T00:31:47.878Z,98512.08
2019-06-01T00:34:18.341Z,98502.33
2019-06-01T00:36:47.837Z,98496.07
2019-06-01T00:39:20.468Z,98503.84
2019-06-01T00:41:52.475Z,98499.89
2019-06-01T00:44:22.031Z,98501.92
2019-06-01T00:46:51.308Z,98502.72
2019-06-01T00:49:20.690Z,98497.95
2019-06-01T00:51:52.135Z,98494.48
2019-06-01T00:54:22.397Z,98493.80
2019-06-01T00:56:53.840Z,98495.85
2019-06-01T00:59:23.452Z,98493.82
2019-06-01T01:01:54.125Z,98497.25
2019-06-01T01:04:24.894Z,98497.30
2019-06-01T01:06:57.007Z,98497.45
2019-06-01T01:09:25.917Z,98498.31
2019-06-01T01:11:55.481Z,98497.75
2019-06-01T01:14:24.942Z,98496.27
2019-06-01T01:16:57.389Z,98500.20
2019-06-01T01:19:29.261Z,98497.70
2019-06-01T01:22:00.230Z,98501.33
2019-06-01T01:24:32.167Z,98502.27
2019-06-01T01:27:01.687Z,98500.06
2019-06-01T01:29:32.442Z,98501.82
2019-06-01T01:32:02.953Z,98503.94
2019-06-01T01:34:34.212Z,98508.02
2019-06-01T01:37:03.659Z,98497.38
2019-06-01T01:39:34.188Z,98499.50
2019-06-01T01:42:03.578Z,98494.63
2019-06-01T01:44:34.147Z,98496.96
2019-06-01T01:47:02.617Z,98491.64
2019-06-01T01:49:36.837Z,98494.18
2019-06-01T01:52:06.213Z,98492.94
2019-06-01T01:54:35.723Z,98498.41
2019-06-01T01:57:08.159Z,98499.56
2019-06-01T01:59:37.581Z,98497.30
2019-06-01T02:02:09.848Z,98497.31
2019-06-01T02:04:39.334Z,98495.20
2019-06-01T02:07:09.813Z,98498.70
2019-06-01T02:09:40.187Z,98495.23
2019-06-01T02:12:09.493Z,98489.46
2019-06-01T02:14:38.861Z,98484.38
2019-06-01T02:17:08.175Z,98490.09
2019-06-01T02:19:39.206Z,98491.39
2019-06-01T02:22:12.946Z,98495.67
2019-06-01T02:24:42.348Z,98488.17
2019-06-01T02:27:12.711Z,98491.91
2019-06-01T02:29:42.075Z,98484.66
2019-06-01T02:32:12.482Z,98483.72
2019-06-01T02:34:43.951Z,98486.04
2019-06-01T02:37:12.875Z,98481.78
2019-06-01T02:39:42.382Z,98479.67
2019-06-01T02:42:16.013Z,98477.97
2019-06-01T02:44:45.349Z,98481.89
2019-06-01T02:47:14.760Z,98485.96
2019-06-01T02:49:44.068Z,98483.76
2019-06-01T02:52:15.945Z,98483.30
2019-06-01T02:54:46.793Z,98484.37
2019-06-01T02:57:17.377Z,98485.42
2019-06-01T02:59:48.726Z,98487.27
2019-06-01T03:02:19.868Z,98495.14
2019-06-01T03:04:50.363Z,98490.64
2019-06-01T03:07:21.191Z,98494.56
2019-06-01T03:09:52.112Z,98493.61
2019-06-01T03:12:23.707Z,98499.63
2019-06-01T03:14:54.635Z,98504.15
2019-06-01T03:17:28.017Z,98499.17
2019-06-01T03:19:59.607Z,98502.19
2019-06-01T03:22:30.566Z,98502.19
2019-06-01T03:25:03.779Z,98499.41
2019-06-01T03:27:35.971Z,98495.73
2019-06-01T03:30:14.511Z,98502.53
2019-06-01T03:32:42.423Z,98496.41
2019-06-01T03:35:11.407Z,98498.57
2019-06-01T03:37:41.720Z,98496.25
2019-06-01T03:40:23.173Z,98497.05
2019-06-01T03:42:42.573Z,98501.63
2019-06-01T03:45:13.239Z,98499.64
2019-06-01T03:47:43.144Z,98503.28
2019-06-01T03:50:14.916Z,98501.00
2019-06-01T03:52:44.270Z,98502.59
2019-06-01T03:55:14.662Z,98500.41
2019-06-01T03:57:45.080Z,98505.66
2019-06-01T04:00:15.688Z,98496.71
2019-06-01T04:02:45.048Z,98498.02
2019-06-01T04:05:16.284Z,98495.09
2019-06-01T04:07:46.690Z,98495.95
2019-06-01T04:10:17.213Z,98492.06
2019-06-01T04:12:46.623Z,98490.20
2019-06-01T04:15:16.981Z,98491.91
2019-06-01T04:17:47.476Z,98490.19
2019-06-01T04:20:18.195Z,98488.30
2019-06-01T04:22:47.586Z,98491.05
2019-06-01T04:25:17.971Z,98480.55
2019-06-01T04:27:47.247Z,98478.36
2019-06-01T04:30:17.832Z,98479.41
2019-06-01T04:32:50.359Z,98481.09
2019-06-01T04:35:19.824Z,98481.88
2019-06-01T04:37:50.254Z,98484.34
2019-06-01T04:40:23.009Z,98482.28
2019-06-01T04:42:54.892Z,98474.53
2019-06-01T04:45:25.300Z,98483.69
2019-06-01T04:47:55.671Z,98473.05
2019-06-01T04:50:27.031Z,98480.66
2019-06-01T04:52:55.531Z,98477.88
2019-06-01T04:55:26.067Z,98485.03
2019-06-01T04:57:57.016Z,98477.83
2019-06-01T05:00:28.134Z,98485.36
2019-06-01T05:03:05.208Z,98489.16
2019-06-01T05:05:30.929Z,98488.52
2019-06-01T05:08:00.286Z,98487.89
2019-06-01T05:10:30.815Z,98492.98
2019-06-01T05:13:00.376Z,98488.60
2019-06-01T05:15:29.291Z,98486.00
2019-06-01T05:17:58.837Z,98489.58
2019-06-01T05:20:28.291Z,98485.20
2019-06-01T05:23:00.676Z,98486.36
2019-06-01T05:25:32.499Z,98484.47
2019-06-01T05:28:02.806Z,98480.76
2019-06-01T05:30:32.312Z,98482.41
2019-06-01T05:33:02.742Z,98484.64
2019-06-01T05:35:33.329Z,98472.76
2019-06-01T05:38:05.973Z,98472.59
2019-06-01T05:40:39.218Z,98474.45
2019-06-01T05:43:13.851Z,98475.77
2019-06-01T05:45:42.127Z,98468.81
2019-06-01T05:48:13.212Z,98474.44
2019-06-01T05:50:45.641Z,98476.91
2019-06-01T05:53:16.734Z,98464.83
2019-06-01T05:55:47.337Z,98467.09
2019-06-01T05:58:19.727Z,98465.88
2019-06-01T06:00:49.402Z,98466.99
2019-06-01T06:03:23.643Z,98462.32
2019-06-01T06:05:52.301Z,98471.66
2019-06-01T06:08:22.659Z,98464.58
2019-06-01T06:10:53.069Z,98462.24
2019-06-01T06:13:24.828Z,98468.90
2019-06-01T06:15:55.046Z,98470.41
2019-06-01T06:18:27.021Z,98468.35
2019-06-01T06:20:56.605Z,98477.99
2019-06-01T06:23:27.742Z,98476.43
2019-06-01T06:25:56.542Z,98476.70
2019-06-01T06:28:26.960Z,98479.80
2019-06-01T06:30:57.402Z,98478.95
2019-06-01T06:33:27.968Z,98489.03
2019-06-01T06:35:59.951Z,98479.78
2019-06-01T06:38:29.354Z,98486.01
2019-06-01T06:40:59.705Z,98484.30
2019-06-01T06:43:33.130Z,98482.34
2019-06-01T06:46:00.152Z,98485.94
2019-06-01T06:48:29.547Z,98484.63
2019-06-01T06:51:01.042Z,98489.52
2019-06-01T06:53:35.001Z,98490.02
2019-06-01T06:56:02.608Z,98491.33
2019-06-01T06:58:33.077Z,98484.11
2019-06-01T07:01:02.492Z,98481.05
2019-06-01T07:03:32.143Z,98483.45
2019-06-01T07:06:02.634Z,98484.03
2019-06-01T07:08:32.999Z,98483.56
2019-06-01T07:11:01.470Z,98480.88
2019-06-01T07:13:31.874Z,98484.13
2019-06-01T07:16:03.957Z,98485.75
2019-06-01T07:18:33.540Z,98484.31
2019-06-01T07:21:02.973Z,98483.69
2019-06-01T07:23:33.378Z,98486.73
2019-06-01T07:26:02.725Z,98488.77
2019-06-01T07:28:33.034Z,98486.45
2019-06-01T07:31:04.846Z,98479.61
2019-06-01T07:33:34.157Z,98483.59
2019-06-01T07:36:04.680Z,98480.03
2019-06-01T07:38:35.276Z,98483.20
2019-06-01T07:41:07.669Z,98474.42
2019-06-01T07:43:37.065Z,98470.86
2019-06-01T07:46:10.776Z,98464.84
2019-06-01T07:48:41.177Z,98459.30
2019-06-01T07:51:11.467Z,98458.32
2019-06-01T07:53:42.092Z,98465.09
2019-06-01T07:56:11.498Z,98463.20
2019-06-01T07:58:40.861Z,98452.60
2019-06-01T08:01:13.623Z,98444.50
2019-06-01T08:03:42.997Z,98451.62
2019-06-01T08:06:13.498Z,98445.14
2019-06-01T08:08:44.113Z,98437.11
2019-06-01T08:11:16.708Z,98444.83
2019-06-01T08:13:47.158Z,98443.94
2019-06-01T08:16:24.157Z,98440.11
2019-06-01T08:18:54.935Z,98436.83
2019-06-01T08:21:26.055Z,98427.05
2019-06-01T08:23:58.768Z,98427.77
2019-06-01T08:26:32.749Z,98428.72
2019-06-01T08:29:01.662Z,98426.05
2019-06-01T08:31:32.218Z,98423.52
2019-06-01T08:34:02.052Z,98425.16
2019-06-01T08:36:40.085Z,98418.73
2019-06-01T08:39:12.688Z,98419.88
2019-06-01T08:41:42.086Z,98414.34
2019-06-01T08:44:14.661Z,98408.30
2019-06-01T08:46:44.879Z,98409.75
2019-06-01T08:49:14.244Z,98406.76
2019-06-01T08:51:46.594Z,98404.28
2019-06-01T08:54:17.629Z,98408.30
2019-06-01T08:56:50.752Z,98402.27
2019-06-01T08:59:20.043Z,98399.48
2019-06-01T09:01:53.246Z,98402.02
2019-06-01T09:04:30.755Z,98394.06
2019-06-01T09:07:03.578Z,98389.21
2019-06-01T09:09:40.846Z,98381.75
2019-06-01T09:12:14.496Z,98385.37
2019-06-01T09:14:46.474Z,98373.23
2019-06-01T09:17:18.733Z,98384.46
2019-06-01T09:19:47.942Z,98375.91
2019-06-01T09:22:18.512Z,98376.48
2019-06-01T09:24:47.915Z,98378.45
2019-06-01T09:27:21.728Z,98377.56
2019-06-01T09:29:51.031Z,98376.61
2019-06-01T09:32:22.445Z,98376.31
2019-06-01T09:34:51.947Z,98379.16
2019-06-01T09:37:22.416Z,98371.03
2019-06-01T09:39:51.812Z,98370.86
2019-06-01T09:42:24.493Z,98370.92
2019-06-01T09:44:54.993Z,98369.23
2019-06-01T09:47:29.055Z,98361.81
2019-06-01T09:50:00.913Z,98365.96
2019-06-01T09:52:31.431Z,98372.64
2019-06-01T09:55:00.722Z,98365.21
2019-06-01T09:57:32.005Z,98366.52
2019-06-01T10:00:05.565Z,98356.67
2019-06-01T10:02:36.121Z,98360.91
2019-06-01T10:05:07.662Z,98361.28
2019-06-01T10:07:39.479Z,98363.83
2019-06-01T10:10:11.166Z,98363.45
2019-06-01T10:12:40.630Z,98361.03
2019-06-01T10:15:10.608Z,98362.16
2019-06-01T10:17:40.131Z,98356.88
2019-06-01T10:20:14.344Z,98351.27
2019-06-01T10:22:46.101Z,98355.84
2019-06-01T10:25:16.515Z,98346.53
2019-06-01T10:27:46.997Z,98348.88
2019-06-01T10:30:19.006Z,98346.08
2019-06-01T10:32:50.551Z,98343.46
2019-06-01T10:35:22.277Z,98342.91
2019-06-01T10:37:52.724Z,98344.31
2019-06-01T10:40:22.129Z,98343.19
2019-06-01T10:42:51.688Z,98341.33
2019-06-01T10:45:21.153Z,98340.27
2019-06-01T10:47:51.756Z,98336.16
2019-06-01T10:50:24.018Z,98332.95
2019-06-01T10:52:57.452Z,98329.03
2019-06-01T10:55:29.645Z,98326.48
2019-06-01T10:58:00.041Z,98320.40
2019-06-01T11:00:38.681Z,98319.98
2019-06-01T11:03:01.589Z,98326.88
2019-06-01T11:05:32.539Z,98314.17
2019-06-01T11:08:03.959Z,98310.78
2019-06-01T11:10:36.885Z,98315.88
2019-06-01T11:13:08.268Z,98311.67
2019-06-01T11:15:39.067Z,98310.95
2019-06-01T11:18:09.553Z,98305.93
2019-06-01T11:20:41.915Z,98312.09
2019-06-01T11:23:13.534Z,98303.95
2019-06-01T11:25:43.747Z,98305.23
2019-06-01T11:28:13.308Z,98301.86
2019-06-01T11:30:43.975Z,98302.75
2019-06-01T11:33:16.111Z,98300.34
2019-06-01T11:35:46.462Z,98299.06
2019-06-01T11:38:16.764Z,98297.84
2019-06-01T11:40:49.474Z,98294.80
2019-06-01T11:43:23.427Z,98286.68
2019-06-01T11:45:55.970Z,98288.19
2019-06-01T11:48:25.487Z,98285.93
2019-06-01T11:50:54.866Z,98280.33
2019-06-01T11:53:25.098Z,98280.50
2019-06-01T11:55:56.845Z,98275.36
2019-06-01T11:58:27.919Z,98268.17
2019-06-01T12:00:58.704Z,98268.08
2019-06-01T12:03:29.069Z,98271.94
2019-06-01T12:06:01.905Z,98268.22
2019-06-01T12:08:34.134Z,98265.45
2019-06-01T12:11:03.536Z,98261.55
2019-06-01T12:13:33.288Z,98258.64
2019-06-01T12:16:02.992Z,98260.78
2019-06-01T12:18:33.805Z,98261.34
2019-06-01T12:21:04.207Z,98249.00
2019-06-01T12:23:33.651Z,98248.58
2019-06-01T12:26:03.974Z,98249.30
2019-06-01T12:28:34.607Z,98249.27
2019-06-01T12:31:07.832Z,98243.00
2019-06-01T12:33:38.223Z,98241.91
2019-06-01T12:36:08.669Z,98238.39
2019-06-01T12:38:53.338Z,98235.47
2019-06-01T12:41:23.893Z,98236.33
2019-06-01T12:44:12.035Z,98229.03
2019-06-01T12:46:43.813Z,98222.86
2019-06-01T12:49:16.485Z,98226.47
2019-06-01T12:51:48.789Z,98224.73
2019-06-01T12:54:19.717Z,98224.63
2019-06-01T12:56:49.780Z,98222.25
2019-06-01T12:59:19.217Z,98215.74
2019-06-01T13:01:48.113Z,98213.00
2019-06-01T13:04:21.106Z,98207.85
2019-06-01T13:09:40.405Z,98207.92
2019-06-01T13:12:10.924Z,98203.74
2019-06-01T13:14:41.424Z,98199.81
2019-06-01T13:17:14.587Z,98191.21
2019-06-01T13:19:47.338Z,98195.09
2019-06-01T13:22:16.961Z,98188.58
2019-06-01T13:24:47.988Z,98187.78
2019-06-01T13:27:17.833Z,98181.02
2019-06-01T13:29:50.218Z,98179.22
2019-06-01T13:32:20.758Z,98176.27
2019-06-01T13:34:53.560Z,98169.25
2019-06-01T13:37:24.080Z,98170.20
2019-06-01T13:39:58.287Z,98163.99
2019-06-01T13:42:30.716Z,98162.04
2019-06-01T13:45:02.736Z,98160.52
2019-06-01T13:47:34.791Z,98163.17
2019-06-01T13:50:07.337Z,98163.73
2019-06-01T13:52:41.114Z,98163.52
2019-06-01T13:55:11.289Z,98162.56
2019-06-01T13:57:40.159Z,98160.08
2019-06-01T14:00:15.870Z,98159.34
2019-06-01T14:02:49.011Z,98156.84
2019-06-01T14:05:17.114Z,98152.84
2019-06-01T14:07:47.465Z,98154.52
2019-06-01T14:10:20.324Z,98148.98
2019-06-01T14:12:53.482Z,98153.17
2019-06-01T14:15:23.058Z,98151.78
2019-06-01T14:17:54.549Z,98146.52
2019-06-01T14:20:27.543Z,98143.34
2019-06-01T14:22:58.728Z,98139.61
2019-06-01T14:25:29.966Z,98141.09
2019-06-01T14:28:03.351Z,98140.88
2019-06-01T14:30:32.695Z,98134.92
2019-06-01T14:33:04.104Z,98132.61
2019-06-01T14:35:35.832Z,98123.95
2019-06-01T14:38:07.466Z,98123.06
2019-06-01T14:40:41.256Z,98122.27
2019-06-01T14:43:10.675Z,98128.50
2019-06-01T14:45:41.253Z,98121.20
2019-06-01T14:48:15.238Z,98128.54
2019-06-01T14:50:47.572Z,98124.31
2019-06-01T14:53:19.896Z,98120.13
2019-06-01T14:55:49.768Z,98115.52
2019-06-01T14:58:20.741Z,98116.51
2019-06-01T15:00:50.657Z,98115.23
2019-06-01T15:03:23.102Z,98110.61
2019-06-01T15:05:54.407Z,98104.64
2019-06-01T15:08:23.787Z,98105.81
2019-06-01T15:10:53.438Z,98111.00
2019-06-01T15:13:24.804Z,98106.48
2019-06-01T15:15:58.863Z,98106.18
2019-06-01T15:18:28.249Z,98104.16
2019-06-01T15:20:57.958Z,98107.35
2019-06-01T15:23:27.364Z,98097.92
2019-06-01T15:25:58.564Z,98101.00
2019-06-01T15:28:29.026Z,98090.23
2019-06-01T15:30:59.315Z,98095.14
2019-06-01T15:33:31.644Z,98094.50
2019-06-01T15:36:02.531Z,98091.98
2019-06-01T15:38:32.408Z,98092.52
2019-06-01T15:41:04.380Z,98086.97
2019-06-01T15:43:37.967Z,98089.41
2019-06-01T15:46:08.324Z,98083.97
2019-06-01T15:48:40.828Z,98078.57
2019-06-01T15:51:11.331Z,98080.38
2019-06-01T15:53:40.855Z,98077.91
2019-06-01T15:56:10.908Z,98081.47
2019-06-01T15:58:52.251Z,98081.91
2019-06-01T16:01:12.641Z,98077.53
2019-06-01T16:03:42.147Z,98071.91
2019-06-01T16:06:11.579Z,98077.64
2019-06-01T16:08:42.185Z,98074.33
2019-06-01T16:11:12.607Z,98072.42
2019-06-01T16:13:43.889Z,98068.70
2019-06-01T16:16:15.286Z,98072.63
2019-06-01T16:18:44.656Z,98068.83
2019-06-01T16:21:15.157Z,98070.17
2019-06-01T16:23:49.851Z,98065.63
2019-06-01T16:26:18.096Z,98061.66
2019-06-01T16:28:52.218Z,98056.93
2019-06-01T16:31:22.861Z,98059.25
2019-06-01T16:33:54.771Z,98052.55
2019-06-01T16:36:26.366Z,98046.88
2019-06-01T16:39:02.751Z,98045.67
2019-06-01T16:41:29.745Z,98042.70
2019-06-01T16:44:01.877Z,98044.58
2019-06-01T16:46:32.267Z,98042.40
2019-06-01T16:49:03.677Z,98042.73
2019-06-01T16:51:53.132Z,98040.80
2019-06-01T16:54:24.056Z,98035.84
2019-06-01T16:56:53.460Z,98041.36
2019-06-01T16:59:28.211Z,98039.78
2019-06-01T17:01:59.048Z,98043.31
2019-06-01T17:04:28.394Z,98044.38
2019-06-01T17:06:58.647Z,98038.81
2019-06-01T17:09:29.662Z,98042.09
2019-06-01T17:12:00.848Z,98039.27
2019-06-01T17:14:32.202Z,98038.20
2019-06-01T17:17:03.118Z,98040.67
2019-06-01T17:19:33.971Z,98043.79
2019-06-01T17:22:03.554Z,98041.92
2019-06-01T17:24:37.488Z,98043.22
2019-06-01T17:27:08.066Z,98039.97
2019-06-01T17:29:38.627Z,98041.00
2019-06-01T17:32:21.444Z,98036.33
2019-06-01T17:34:41.113Z,98040.82
2019-06-01T17:37:12.302Z,98037.58
2019-06-01T17:39:42.848Z,98037.02
2019-06-01T17:42:12.732Z,98039.33
2019-06-01T17:44:41.273Z,98037.03
2019-06-01T17:47:12.210Z,98031.88
2019-06-01T17:49:41.807Z,98028.78
2019-06-01T17:52:13.313Z,98030.36
2019-06-01T17:54:42.826Z,98030.73
2019-06-01T17:57:15.162Z,98027.91
2019-06-01T17:59:47.241Z,98025.05
2019-06-01T18:02:16.715Z,98026.74
2019-06-01T18:04:47.118Z,98025.33
2019-06-01T18:07:17.828Z,98026.53
2019-06-01T18:09:49.221Z,98027.30
2019-06-01T18:12:20.974Z,98020.03
2019-06-01T18:14:50.353Z,98023.82
2019-06-01T18:17:20.704Z,98026.80
2019-06-01T18:19:51.017Z,98027.92
2019-06-01T18:22:29.140Z,98022.15
2019-06-01T18:24:59.692Z,98019.81
2019-06-01T18:27:30.432Z,98024.19
2019-06-01T18:30:00.984Z,98027.39
2019-06-01T18:32:31.390Z,98020.64
2019-06-01T18:35:04.848Z,98023.88
2019-06-01T18:37:36.796Z,98022.94
2019-06-01T18:40:11.893Z,98023.75
2019-06-01T18:42:42.309Z,98026.77
2019-06-01T18:45:13.855Z,98028.40
2019-06-01T18:47:43.476Z,98033.65
2019-06-01T18:50:15.976Z,98028.94
2019-06-01T18:52:43.077Z,98032.53
2019-06-01T18:55:16.222Z,98027.50
2019-06-01T18:57:51.244Z,98030.45
2019-06-01T19:00:21.943Z,98032.47
2019-06-01T19:02:51.544Z,98036.48
2019-06-01T19:05:21.092Z,98043.19
2019-06-01T19:07:53.678Z,98044.48
2019-06-01T19:10:24.604Z,98043.22
2019-06-01T19:12:58.159Z,98045.57
2019-06-01T19:15:28.979Z,98045.62
2019-06-01T19:17:58.540Z,98047.89
2019-06-01T19:20:29.954Z,98050.63
2019-06-01T19:23:00.327Z,98053.73
2019-06-01T19:25:30.694Z,98052.37
2019-06-01T19:28:00.077Z,98053.01
2019-06-01T19:30:41.216Z,98054.88
2019-06-01T19:33:14.244Z,98060.78
2019-06-01T19:35:44.160Z,98058.83
2019-06-01T19:38:17.759Z,98063.92
2019-06-01T19:40:49.977Z,98065.39
2019-06-01T19:43:19.549Z,98071.08
2019-06-01T19:45:49.096Z,98073.12
2019-06-01T19:48:22.020Z,98072.16
2019-06-01T19:50:52.848Z,98078.05
2019-06-01T19:53:22.226Z,98074.88
2019-06-01T19:55:51.603Z,98077.11
2019-06-01T19:58:22.459Z,98077.77
2019-06-01T20:00:52.783Z,98071.59
2019-06-01T20:03:24.727Z,98071.26
2019-06-01T20:05:53.481Z,98072.70
2019-06-01T20:08:23.782Z,98075.74
2019-06-01T20:10:54.288Z,98078.20
2019-06-01T20:13:25.162Z,98081.64
2019-06-01T20:15:55.934Z,98079.25
2019-06-01T20:18:28.951Z,98080.69
2019-06-01T20:20:58.672Z,98081.30
2019-06-01T20:23:27.997Z,98078.91
2019-06-01T20:25:58.055Z,98080.12
2019-06-01T20:28:29.048Z,98080.36
2019-06-01T20:30:59.530Z,98077.55
2019-06-01T20:33:29.820Z,98084.81
2019-06-01T20:36:00.133Z,98088.41
2019-06-01T20:38:31.171Z,98086.23
2019-06-01T20:41:00.552Z,98087.47
2019-06-01T20:43:31.029Z,98086.25
2019-06-01T20:46:01.436Z,98089.06
2019-06-01T20:48:33.310Z,98089.67
2019-06-01T20:51:05.164Z,98089.09
2019-06-01T20:53:34.692Z,98095.69
2019-06-01T20:56:07.102Z,98094.48
2019-06-01T20:58:39.095Z,98097.91
2019-06-01T21:01:08.610Z,98101.49
2019-06-01T21:03:38.967Z,98103.93
2019-06-01T21:06:08.485Z,98106.69
2019-06-01T21:08:38.964Z,98109.30
2019-06-01T21:11:11.246Z,98108.30
2019-06-01T21:13:43.405Z,98109.30
2019-06-01T21:16:16.112Z,98106.88
2019-06-01T21:18:48.003Z,98110.30
2019-06-01T21:21:18.386Z,98112.08
2019-06-01T21:23:49.361Z,98110.48
2019-06-01T21:26:20.994Z,98115.05
2019-06-01T21:28:51.599Z,98120.05
2019-06-01T21:31:23.720Z,98121.23
2019-06-01T21:33:52.545Z,98120.23
2019-06-01T21:36:23.560Z,98120.81
2019-06-01T21:38:55.718Z,98124.01
2019-06-01T21:41:26.709Z,98122.19
2019-06-01T21:43:57.049Z,98122.19
2019-06-01T21:46:30.694Z,98119.73
2019-06-01T21:49:01.203Z,98127.50
2019-06-01T21:51:33.177Z,98128.89
2019-06-01T21:54:03.714Z,98132.48
2019-06-01T21:56:33.155Z,98109.41
2019-06-01T21:59:03.556Z,98109.41
2019-06-01T22:01:33.009Z,98130.24
2019-06-01T22:04:03.330Z,98127.02
2019-06-01T22:06:32.806Z,98129.61
2019-06-01T22:09:02.196Z,98108.92
2019-06-01T22:11:31.748Z,98123.77
2019-06-01T22:14:01.124Z,98123.77
2019-06-01T22:16:31.912Z,98124.34
2019-06-01T22:19:02.309Z,98131.71
2019-06-01T22:21:32.624Z,98133.09
2019-06-01T22:24:02.120Z,98133.66
2019-06-01T22:26:31.498Z,98129.45
2019-06-01T22:29:00.905Z,98132.40
2019-06-01T22:31:32.773Z,98132.97
2019-06-01T22:34:04.958Z,98122.80
2019-06-01T22:36:35.410Z,98124.95
2019-06-01T22:39:06.511Z,98120.95
2019-06-01T22:41:38.578Z,98126.12
2019-06-01T22:44:10.833Z,98128.05
2019-06-01T22:46:44.654Z,98125.42
2019-06-01T22:49:15.123Z,98126.38
2019-06-01T22:51:44.414Z,98120.97
2019-06-01T22:54:13.850Z,98118.94
2019-06-01T22:56:45.716Z,98116.92
2019-06-01T22:59:15.109Z,98116.92
2019-06-01T23:01:46.741Z,98117.71
2019-06-01T23:04:16.096Z,98123.88
2019-06-01T23:06:48.071Z,98120.28
2019-06-01T23:09:18.569Z,98119.20
2019-06-01T23:11:47.864Z,98119.73
2019-06-01T23:14:17.228Z,98112.94
2019-06-01T23:16:46.670Z,98118.30
2019-06-01T23:19:17.312Z,98116.27
2019-06-01T23:21:47.931Z,98113.05
2019-06-01T23:24:18.296Z,98106.86
2019-06-01T23:26:50.156Z,98111.02
2019-06-01T23:29:22.188Z,98107.61
2019-06-01T23:31:54.387Z,98113.36
2019-06-01T23:34:26.714Z,98112.52
2019-06-01T23:36:56.108Z,98112.31
2019-06-01T23:39:26.706Z,98113.88
2019-06-01T23:41:58.671Z,98110.08
2019-06-01T23:44:31.907Z,98111.84
2019-06-01T23:46:59.406Z,98106.19
2019-06-01T23:49:29.755Z,98100.51
2019-06-01T23:51:59.014Z,98101.64
2019-06-01T23:54:29.640Z,98099.41
2019-06-01T23:57:00.665Z,98104.17
2019-06-01T23:59:32.532Z,98100.77
